Sleights, United Kingdom
Current Conditions -  °F | °C
As of 1:50 PM on Wednesday 22 Oct 2014 (Local Time) from EGNV Reporting Station
Light Rain Light Rain  
Wind Chill: 52°   Ceiling: 3300
Heat Index: 52°   Visibility: 6mi
Dew Point: 48°   Wind: 12mph
Humidity: 88%   Direction: 230°SW
Pressure: 30.12"   Gusts: NA
Location:  54.46°N, 0.66°W
Report Text: EGNV 221250Z 23010KT 9999 -RA SCT023 BKN033 11/09 Q1020
Loading
Personal Weather Stations






























Interactive Weather Map
Tropical Storm Tracking
New forecast layout! Learn more

10-Day Weather Forecast

Advertisements
Track Severe Weather on mobile